Time;durP1;ratioP1;P1;durP2;ratioP2;P2;SDS_P1;SDS_P2;PMS_P1;PMS_P2;Temp;Humidity;BMP_temperature;BMP_pressure;BME280_temperature;BME280_humidity;BME280_pressure;Samples;Min_cycle;Max_cycle;Signal;HPM_P1;HPM_P2
2022/04/08 00:01:26;;;;;;;3.63;1.45;;;18.20;57.50;;;;;;6144198;23;20484;-84
2022/04/08 00:03:54;;;;;;;2.80;1.05;;;18.10;57.20;;;;;;6144486;23;20168;-86
2022/04/08 00:06:21;;;;;;;3.38;1.13;;;18.10;57.10;;;;;;6169160;23;20181;-86
2022/04/08 00:08:47;;;;;;;0.70;0.70;;;18.20;57.00;;;;;;6168776;23;20180;-85
2022/04/08 00:11:13;;;;;;;2.10;1.00;;;18.20;57.10;;;;;;6170621;23;20200;-85
2022/04/08 00:13:41;;;;;;;3.15;1.15;;;18.20;57.00;;;;;;6219153;23;20484;-85
2022/04/08 00:16:08;;;;;;;2.05;1.10;;;18.20;57.30;;;;;;6143978;23;20149;-86
2022/04/08 00:18:36;;;;;;;1.77;1.15;;;18.20;57.40;;;;;;6168422;23;20153;-84
2022/04/08 00:21:03;;;;;;;2.05;0.93;;;18.20;57.20;;;;;;6144174;23;20154;-85
2022/04/08 00:23:30;;;;;;;2.13;1.10;;;18.20;57.30;;;;;;6143793;23;20154;-86
2022/04/08 00:25:57;;;;;;;2.63;1.35;;;18.10;57.10;;;;;;6168496;23;20248;-86
2022/04/08 00:28:24;;;;;;;2.55;1.10;;;18.10;57.50;;;;;;6144240;23;20145;-85
2022/04/08 00:30:50;;;;;;;4.18;1.20;;;18.10;57.00;;;;;;6168918;23;20153;-84
2022/04/08 00:33:16;;;;;;;2.33;1.10;;;18.10;57.20;;;;;;6143623;23;20189;-86
2022/04/08 00:35:43;;;;;;;2.53;1.10;;;18.10;57.20;;;;;;6194586;23;20150;-85
2022/04/08 00:38:09;;;;;;;2.67;1.30;;;18.10;57.40;;;;;;6119801;23;20150;-86
2022/04/08 00:40:36;;;;;;;2.78;1.00;;;18.10;57.30;;;;;;6168549;23;20676;-86
2022/04/08 00:43:16;;;;;;;2.67;1.13;;;18.10;56.70;;;;;;6220711;23;20635;-85
2022/04/08 00:45:43;;;;;;;4.20;0.90;;;18.10;57.30;;;;;;6220986;23;20137;-86
2022/04/08 00:48:09;;;;;;;1.55;0.70;;;18.10;57.20;;;;;;6221468;23;20490;-86
2022/04/08 00:50:37;;;;;;;2.70;1.00;;;18.10;57.20;;;;;;6221620;23;20579;-86
2022/04/08 00:53:04;;;;;;;2.78;1.02;;;18.10;57.10;;;;;;6196719;23;20177;-85
2022/04/08 00:55:30;;;;;;;1.88;0.82;;;18.10;57.20;;;;;;6221634;23;20231;-85
2022/04/08 00:57:59;;;;;;;2.25;1.10;;;18.10;57.40;;;;;;6220887;23;20476;-85
2022/04/08 01:00:32;;;;;;;2.30;0.93;;;18.10;57.00;;;;;;6146578;23;20164;-86
2022/04/08 01:02:57;;;;;;;1.55;1.00;;;18.10;57.30;;;;;;6122672;23;20166;-87
2022/04/08 01:05:24;;;;;;;1.70;1.08;;;18.10;57.20;;;;;;6195825;23;20173;-87
2022/04/08 01:07:52;;;;;;;2.67;1.00;;;18.10;56.90;;;;;;6221477;23;20142;-85
2022/04/08 01:10:19;;;;;;;3.13;1.00;;;18.00;57.40;;;;;;6146099;23;20157;-85
2022/04/08 01:12:49;;;;;;;3.53;1.02;;;18.10;57.30;;;;;;6145325;23;20187;-87
2022/04/08 01:15:17;;;;;;;2.95;1.00;;;18.10;57.30;;;;;;6147201;23;20153;-85
2022/04/08 01:17:44;;;;;;;2.80;0.82;;;18.10;57.30;;;;;;6170015;23;20152;-86
2022/04/08 01:20:10;;;;;;;2.03;0.85;;;18.00;57.50;;;;;;6169873;23;20153;-86
2022/04/08 01:22:37;;;;;;;3.28;1.20;;;18.00;57.40;;;;;;6195638;23;20466;-85
2022/04/08 01:25:05;;;;;;;4.00;1.10;;;18.10;57.20;;;;;;6169944;23;20203;-85
2022/04/08 01:27:32;;;;;;;2.45;0.90;;;18.00;57.40;;;;;;6145362;23;20647;-86
2022/04/08 01:29:59;;;;;;;2.17;0.93;;;18.00;57.30;;;;;;6144958;23;20157;-85
2022/04/08 01:32:24;;;;;;;1.83;1.00;;;18.00;57.30;;;;;;6169485;23;20211;-85
2022/04/08 01:34:52;;;;;;;3.03;1.08;;;18.00;57.30;;;;;;6221110;23;20137;-86
2022/04/08 01:37:19;;;;;;;2.22;0.90;;;18.00;57.40;;;;;;6171520;23;20195;-85
2022/04/08 01:39:49;;;;;;;4.13;1.00;;;17.90;57.30;;;;;;6145645;23;20160;-87
2022/04/08 01:42:16;;;;;;;2.45;1.20;;;18.00;57.50;;;;;;6145623;23;20156;-86
2022/04/08 01:44:44;;;;;;;3.40;1.02;;;18.00;57.60;;;;;;6145606;23;20158;-85
2022/04/08 01:47:10;;;;;;;3.13;0.98;;;18.00;57.70;;;;;;6247687;23;20187;-86
2022/04/08 01:49:36;;;;;;;2.22;1.13;;;18.00;57.60;;;;;;6220465;23;20153;-84
2022/04/08 01:52:03;;;;;;;2.83;1.05;;;18.00;57.50;;;;;;6247278;23;20165;-85
2022/04/08 01:54:29;;;;;;;3.15;1.00;;;18.00;57.70;;;;;;6220564;23;20130;-87
2022/04/08 01:56:55;;;;;;;7.63;1.83;;;18.00;57.40;;;;;;6247030;23;20196;-86
2022/04/08 01:59:21;;;;;;;1.40;0.90;;;18.00;57.60;;;;;;6220405;23;20150;-87
2022/04/08 02:01:46;;;;;;;2.70;0.98;;;18.00;57.80;;;;;;6220675;23;20573;-85
2022/04/08 02:04:16;;;;;;;2.13;1.10;;;18.00;57.60;;;;;;6220372;23;20133;-84
2022/04/08 02:06:42;;;;;;;1.45;0.82;;;18.00;57.60;;;;;;6145365;23;20149;-86
2022/04/08 02:09:09;;;;;;;2.03;1.00;;;18.00;57.80;;;;;;6220217;23;20149;-86
2022/04/08 02:11:36;;;;;;;1.98;1.00;;;18.00;57.60;;;;;;6195244;23;20512;-84
2022/04/08 02:14:02;;;;;;;2.88;0.93;;;18.00;57.50;;;;;;6195409;23;20137;-85
2022/04/08 02:16:28;;;;;;;2.80;1.00;;;18.00;57.50;;;;;;6220529;23;20130;-86
2022/04/08 02:18:54;;;;;;;3.53;1.35;;;18.00;57.30;;;;;;6170478;23;20195;-85
2022/04/08 02:21:21;;;;;;;2.13;0.88;;;17.90;57.60;;;;;;6220168;23;20236;-86
2022/04/08 02:23:49;;;;;;;4.68;1.10;;;18.00;57.50;;;;;;6219905;23;20173;-85
2022/04/08 02:26:16;;;;;;;1.95;1.02;;;18.00;57.40;;;;;;6220234;23;20141;-85
2022/04/08 02:28:44;;;;;;;2.10;0.90;;;17.90;57.60;;;;;;6169743;23;20600;-87
2022/04/08 02:31:11;;;;;;;2.38;0.93;;;18.00;57.50;;;;;;6144846;23;20161;-86
2022/04/08 02:33:37;;;;;;;2.05;1.05;;;17.90;57.50;;;;;;6144461;23;20490;-87
2022/04/08 02:36:04;;;;;;;2.60;1.10;;;18.00;57.40;;;;;;6170208;23;20191;-87
2022/04/08 02:38:31;;;;;;;2.03;0.93;;;18.00;58.00;;;;;;6219760;23;20150;-86
2022/04/08 02:40:57;;;;;;;2.80;0.90;;;18.00;57.30;;;;;;6144771;23;20153;-86
2022/04/08 02:43:22;;;;;;;2.17;1.10;;;17.90;57.30;;;;;;6195200;23;20152;-85
2022/04/08 02:45:50;;;;;;;1.77;1.00;;;17.90;57.70;;;;;;6195081;23;20175;-85
2022/04/08 02:48:18;;;;;;;2.75;0.90;;;17.90;57.60;;;;;;6144608;23;20582;-86
2022/04/08 02:50:46;;;;;;;3.38;1.13;;;17.90;57.50;;;;;;6170515;23;20153;-85
2022/04/08 02:53:13;;;;;;;1.63;0.93;;;17.90;57.50;;;;;;6144831;23;20181;-84
2022/04/08 02:55:40;;;;;;;2.45;0.90;;;17.90;57.50;;;;;;6169623;23;20597;-86
2022/04/08 02:58:07;;;;;;;1.52;0.90;;;17.90;57.20;;;;;;6144542;23;20157;-87
2022/04/08 03:00:34;;;;;;;1.35;0.93;;;17.90;57.50;;;;;;6144483;23;20181;-87
2022/04/08 03:03:01;;;;;;;2.33;1.10;;;17.90;57.50;;;;;;6169099;23;20185;-86
2022/04/08 03:05:28;;;;;;;1.80;1.00;;;17.90;57.40;;;;;;6168943;23;20153;-86
2022/04/08 03:07:55;;;;;;;1.85;1.25;;;17.90;57.40;;;;;;6144266;23;20164;-85
2022/04/08 03:10:22;;;;;;;1.65;0.80;;;17.90;57.20;;;;;;6144173;23;20154;-85
2022/04/08 03:12:49;;;;;;;2.50;1.10;;;17.90;57.40;;;;;;6144072;23;20225;-85
2022/04/08 03:15:16;;;;;;;2.08;1.10;;;17.90;57.40;;;;;;6144293;23;20157;-85
2022/04/08 03:17:42;;;;;;;2.20;0.90;;;18.00;57.60;;;;;;6144590;23;20157;-86
2022/04/08 03:20:08;;;;;;;2.60;1.20;;;17.90;57.50;;;;;;6144590;23;20167;-84
2022/04/08 03:22:35;;;;;;;2.50;1.00;;;17.90;57.40;;;;;;6194888;23;20565;-86
2022/04/08 03:25:03;;;;;;;2.45;0.93;;;17.90;57.30;;;;;;6144291;23;20149;-86
2022/04/08 03:27:30;;;;;;;1.13;0.80;;;17.90;57.50;;;;;;6144215;23;20149;-85
2022/04/08 03:29:58;;;;;;;2.60;1.08;;;17.90;57.50;;;;;;6144151;23;20631;-86
2022/04/08 03:32:23;;;;;;;1.33;0.90;;;17.90;57.50;;;;;;6168843;23;20219;-87
2022/04/08 03:35:00;;;;;;;1.48;1.20;;;17.80;57.30;;;;;;6195012;23;20592;-87
2022/04/08 03:37:28;;;;;;;2.45;0.85;;;17.90;57.40;;;;;;6148746;23;20152;-86
2022/04/08 03:39:56;;;;;;;4.55;1.25;;;17.90;57.60;;;;;;6144746;23;20233;-86
2022/04/08 03:42:23;;;;;;;2.85;1.10;;;17.90;57.30;;;;;;6169399;23;20163;-85
2022/04/08 03:44:51;;;;;;;2.40;1.00;;;17.90;57.50;;;;;;6144350;23;20157;-85
2022/04/08 03:47:21;;;;;;;2.20;1.00;;;17.90;58.20;;;;;;6144566;23;20177;-87
2022/04/08 03:49:48;;;;;;;3.22;1.10;;;17.90;57.30;;;;;;6119948;23;20157;-86
2022/04/08 03:52:15;;;;;;;2.25;0.90;;;17.90;57.60;;;;;;6143642;23;20177;-86
2022/04/08 03:54:42;;;;;;;3.50;1.10;;;17.80;57.60;;;;;;6144116;23;20154;-86
2022/04/08 03:57:09;;;;;;;2.05;1.10;;;17.90;57.60;;;;;;6169087;23;20153;-86
2022/04/08 03:59:37;;;;;;;2.38;1.13;;;17.90;57.60;;;;;;6144180;23;20168;-84
2022/04/08 04:02:05;;;;;;;2.05;0.90;;;17.90;57.40;;;;;;6145209;23;20164;-85
2022/04/08 04:04:33;;;;;;;2.65;0.95;;;17.90;57.30;;;;;;6144864;23;20186;-85
2022/04/08 04:06:59;;;;;;;2.63;1.20;;;17.90;57.50;;;;;;6143932;23;20180;-85
2022/04/08 04:09:27;;;;;;;2.47;1.17;;;17.80;57.30;;;;;;6144108;23;20157;-85
2022/04/08 04:11:53;;;;;;;1.77;1.00;;;17.90;57.30;;;;;;6119612;23;20172;-85
2022/04/08 04:14:19;;;;;;;1.90;1.00;;;17.90;57.40;;;;;;6219178;23;20149;-85
2022/04/08 04:16:46;;;;;;;1.63;0.98;;;17.90;57.40;;;;;;6246289;23;20176;-86
2022/04/08 04:19:12;;;;;;;1.55;0.90;;;17.90;57.30;;;;;;6221360;23;20594;-86
2022/04/08 04:21:37;;;;;;;1.77;0.82;;;17.90;57.50;;;;;;6221695;23;20146;-86
2022/04/08 04:24:03;;;;;;;2.20;1.20;;;17.90;57.50;;;;;;6220919;23;20152;-84
2022/04/08 04:26:29;;;;;;;2.40;1.00;;;17.80;57.50;;;;;;6171960;23;20172;-86
2022/04/08 04:28:55;;;;;;;3.90;1.10;;;17.90;57.40;;;;;;6196231;23;20138;-86
2022/04/08 04:31:21;;;;;;;2.05;0.95;;;17.90;57.30;;;;;;6219779;23;20168;-85
2022/04/08 04:33:47;;;;;;;3.33;1.10;;;17.90;57.00;;;;;;6219255;23;20264;-87
2022/04/08 04:36:14;;;;;;;1.70;1.00;;;17.90;57.40;;;;;;6220181;23;20149;-86
2022/04/08 04:38:40;;;;;;;1.75;0.98;;;17.90;57.40;;;;;;6220186;23;20149;-86
2022/04/08 04:41:05;;;;;;;1.20;0.90;;;17.90;57.30;;;;;;6220248;23;20203;-84
2022/04/08 04:43:33;;;;;;;3.72;0.93;;;17.80;57.40;;;;;;6220596;23;20173;-87
2022/04/08 04:45:58;;;;;;;1.45;0.93;;;17.80;56.90;;;;;;6169828;23;20154;-85
2022/04/08 04:48:25;;;;;;;3.10;1.15;;;17.80;57.10;;;;;;6248732;23;20209;-84
2022/04/08 04:50:50;;;;;;;1.23;0.70;;;17.90;57.10;;;;;;6196504;23;20134;-85
2022/04/08 04:53:18;;;;;;;1.27;0.95;;;17.90;57.20;;;;;;6221202;23;20173;-84
2022/04/08 04:55:44;;;;;;;1.65;1.08;;;17.90;56.90;;;;;;6196535;23;20141;-85
2022/04/08 04:58:10;;;;;;;1.02;0.77;;;17.90;56.80;;;;;;6221300;23;20469;-84
2022/04/08 05:00:38;;;;;;;2.10;0.82;;;18.00;56.70;;;;;;6196165;23;20129;-85
2022/04/08 05:03:05;;;;;;;1.58;0.90;;;17.90;56.50;;;;;;6196693;23;20130;-84
2022/04/08 05:05:35;;;;;;;1.73;0.80;;;18.00;56.50;;;;;;6195654;23;20149;-84
2022/04/08 05:08:07;;;;;;;1.63;0.90;;;18.00;56.40;;;;;;6144660;23;20157;-86
2022/04/08 05:10:36;;;;;;;1.23;0.85;;;18.00;56.30;;;;;;6121834;23;20629;-83
2022/04/08 05:13:05;;;;;;;1.50;0.85;;;18.00;56.30;;;;;;6169112;23;20181;-86
2022/04/08 05:15:38;;;;;;;1.77;1.10;;;18.00;56.40;;;;;;6145442;23;20739;-83
2022/04/08 05:18:07;;;;;;;3.40;1.15;;;18.10;56.50;;;;;;6147297;23;20469;-83
2022/04/08 05:20:36;;;;;;;2.60;1.10;;;18.10;56.50;;;;;;6170390;23;20212;-84
2022/04/08 05:23:05;;;;;;;2.95;1.20;;;18.10;56.00;;;;;;6146065;23;20153;-83
2022/04/08 05:25:34;;;;;;;5.03;1.65;;;18.10;56.40;;;;;;6170721;23;20227;-85
2022/04/08 05:28:02;;;;;;;4.82;1.70;;;18.10;55.60;;;;;;6146129;23;20167;-85
2022/04/08 05:30:31;;;;;;;3.53;1.70;;;18.20;55.50;;;;;;6145727;23;20177;-84
2022/04/08 05:32:57;;;;;;;3.72;1.50;;;18.20;55.60;;;;;;6170774;23;20559;-82
2022/04/08 05:35:25;;;;;;;6.68;1.60;;;18.20;55.60;;;;;;6195846;23;20199;-83
2022/04/08 05:37:54;;;;;;;2.95;1.50;;;18.20;55.60;;;;;;6145263;23;20588;-84
2022/04/08 05:40:22;;;;;;;3.63;1.40;;;18.30;55.40;;;;;;6145365;23;20527;-86
2022/04/08 05:42:51;;;;;;;4.20;1.40;;;18.30;55.50;;;;;;6145188;23;20157;-83
2022/04/08 05:45:21;;;;;;;2.53;1.15;;;18.30;55.40;;;;;;6145384;23;20153;-83
2022/04/08 05:47:50;;;;;;;2.90;1.30;;;18.30;55.70;;;;;;6146650;23;20187;-84
2022/04/08 05:50:19;;;;;;;4.90;1.83;;;18.30;55.30;;;;;;6146046;23;20153;-84
2022/04/08 05:52:48;;;;;;;3.55;1.55;;;18.30;55.40;;;;;;6170380;23;20216;-83
2022/04/08 05:55:16;;;;;;;5.20;1.60;;;18.30;55.00;;;;;;6147423;23;20172;-84
2022/04/08 05:57:45;;;;;;;4.32;1.70;;;18.30;55.30;;;;;;6145468;23;20157;-84
2022/04/08 06:00:13;;;;;;;6.65;2.15;;;18.30;55.50;;;;;;6170504;23;20150;-85
2022/04/08 06:02:45;;;;;;;4.75;1.48;;;18.40;55.40;;;;;;6146444;23;20157;-84
2022/04/08 06:05:15;;;;;;;4.78;2.03;;;18.30;55.00;;;;;;6151423;23;20176;-83
2022/04/08 06:07:50;;;;;;;4.15;1.50;;;18.30;55.00;;;;;;6148259;23;20153;-83
2022/04/08 06:10:20;;;;;;;5.28;1.67;;;18.30;55.10;;;;;;6173233;23;20169;-84
2022/04/08 06:12:46;;;;;;;3.75;1.50;;;18.30;55.10;;;;;;6224129;23;20197;-84
2022/04/08 06:15:19;;;;;;;4.40;1.42;;;18.30;55.30;;;;;;6196871;23;20132;-84
2022/04/08 06:17:45;;;;;;;10.23;2.00;;;18.30;55.10;;;;;;6170827;23;20146;-83
2022/04/08 06:20:13;;;;;;;6.38;1.88;;;18.30;55.10;;;;;;6194738;23;20149;-84
2022/04/08 06:22:39;;;;;;;16.25;3.83;;;18.40;55.30;;;;;;6170862;23;20159;-85
2022/04/08 06:25:07;;;;;;;6.57;1.80;;;18.30;55.60;;;;;;6196867;23;20194;-83
2022/04/08 06:27:33;;;;;;;12.15;2.33;;;18.30;54.90;;;;;;6195669;23;20519;-86
2022/04/08 06:29:59;;;;;;;9.63;2.17;;;18.30;55.00;;;;;;6220099;23;20635;-83
2022/04/08 06:32:25;;;;;;;7.13;1.80;;;18.30;55.00;;;;;;6194434;23;20604;-84
2022/04/08 06:34:51;;;;;;;9.23;1.83;;;18.30;55.00;;;;;;6219899;23;20141;-84
2022/04/08 06:37:16;;;;;;;8.38;1.75;;;18.40;54.80;;;;;;6195317;23;20204;-86
2022/04/08 06:39:42;;;;;;;4.95;1.48;;;18.40;55.20;;;;;;6194680;23;20146;-86
2022/04/08 06:42:10;;;;;;;3.95;1.60;;;18.40;54.20;;;;;;6220729;23;20169;-87
2022/04/08 06:44:38;;;;;;;4.32;2.10;;;18.40;55.00;;;;;;6195436;23;20141;-84
2022/04/08 06:47:10;;;;;;;9.23;2.10;;;18.40;55.00;;;;;;6247764;23;20137;-87
2022/04/08 06:49:36;;;;;;;6.65;1.92;;;18.40;54.90;;;;;;6195183;23;20138;-85
2022/04/08 06:52:03;;;;;;;7.05;1.80;;;18.40;54.50;;;;;;6195038;23;20168;-85
2022/04/08 06:54:32;;;;;;;8.82;1.75;;;18.30;55.20;;;;;;6195265;23;20140;-84
2022/04/08 06:56:57;;;;;;;4.30;1.58;;;18.50;54.80;;;;;;6196529;23;20148;-86
2022/04/08 06:59:26;;;;;;;6.18;1.77;;;18.40;54.40;;;;;;6195796;23;20173;-87
2022/04/08 07:01:54;;;;;;;6.70;2.30;;;18.40;54.40;;;;;;6143998;23;20149;-86
2022/04/08 07:04:23;;;;;;;6.43;1.92;;;18.40;54.40;;;;;;6168713;23;20157;-85
2022/04/08 07:06:54;;;;;;;7.72;1.98;;;18.40;53.70;;;;;;6145895;23;20244;-87
2022/04/08 07:09:22;;;;;;;4.78;1.70;;;18.40;54.60;;;;;;6145329;23;20333;-86
2022/04/08 07:11:51;;;;;;;7.72;1.88;;;18.40;54.50;;;;;;6144738;23;20651;-85
2022/04/08 07:14:19;;;;;;;8.57;2.00;;;18.50;53.90;;;;;;6169162;23;20157;-87
2022/04/08 07:16:47;;;;;;;4.22;1.70;;;18.40;54.50;;;;;;6144234;23;20589;-84
2022/04/08 07:19:15;;;;;;;4.20;1.65;;;18.50;54.70;;;;;;6144459;23;20539;-85
2022/04/08 07:21:43;;;;;;;6.22;1.85;;;18.50;55.10;;;;;;6168940;23;20165;-86
2022/04/08 07:24:13;;;;;;;6.30;1.60;;;18.50;54.90;;;;;;6168922;23;20153;-87
2022/04/08 07:26:43;;;;;;;5.03;1.73;;;18.40;54.80;;;;;;6144438;23;20157;-90
2022/04/08 07:29:11;;;;;;;3.97;1.45;;;18.50;54.00;;;;;;6144572;23;20588;-86
2022/04/08 07:31:40;;;;;;;5.28;1.55;;;18.40;54.70;;;;;;6144683;23;20177;-85
2022/04/08 07:34:08;;;;;;;4.00;1.75;;;18.40;54.40;;;;;;6169151;23;20268;-85
2022/04/08 07:36:36;;;;;;;5.45;1.55;;;18.50;54.80;;;;;;6144533;23;20146;-84
2022/04/08 07:39:05;;;;;;;6.40;1.52;;;18.50;54.50;;;;;;6169233;23;20146;-88
2022/04/08 07:41:33;;;;;;;4.43;1.58;;;18.50;54.90;;;;;;6145019;23;20153;-86
2022/04/08 07:44:04;;;;;;;2.45;1.20;;;18.40;55.60;;;;;;6144639;23;20161;-88
2022/04/08 07:46:33;;;;;;;4.47;1.70;;;18.50;54.10;;;;;;6145572;23;20153;-87
2022/04/08 07:49:03;;;;;;;4.28;1.75;;;18.50;54.10;;;;;;6169520;23;20179;-85
2022/04/08 07:51:30;;;;;;;4.40;1.50;;;18.50;54.30;;;;;;6149100;23;20311;-88
2022/04/08 07:54:01;;;;;;;4.90;1.70;;;18.40;53.70;;;;;;6174478;23;20149;-86
2022/04/08 07:56:29;;;;;;;6.25;1.50;;;18.50;54.40;;;;;;6124032;23;20162;-86
2022/04/08 07:58:56;;;;;;;5.65;1.35;;;18.50;54.10;;;;;;6173696;23;20149;-86
2022/04/08 08:01:23;;;;;;;4.47;1.40;;;18.50;53.30;;;;;;6170914;23;20236;-85
2022/04/08 08:03:50;;;;;;;4.72;1.70;;;18.50;53.80;;;;;;6172877;23;20150;-86
2022/04/08 08:06:17;;;;;;;5.15;1.40;;;18.50;53.70;;;;;;6149594;23;20146;-87
2022/04/08 08:08:44;;;;;;;2.55;1.13;;;18.50;53.50;;;;;;6199434;23;20150;-85
2022/04/08 08:11:12;;;;;;;6.25;1.55;;;18.60;52.00;;;;;;6222946;23;20126;-84
2022/04/08 08:13:43;;;;;;;5.32;1.73;;;18.50;52.70;;;;;;6222775;23;20461;-87
2022/04/08 08:16:09;;;;;;;4.38;1.20;;;18.60;53.40;;;;;;6171018;23;20210;-86
2022/04/08 08:18:36;;;;;;;4.13;1.33;;;18.60;53.20;;;;;;6222954;23;20169;-87
2022/04/08 08:21:03;;;;;;;5.20;1.50;;;18.60;52.90;;;;;;6175413;23;20149;-88
2022/04/08 08:23:29;;;;;;;4.80;1.67;;;18.50;53.00;;;;;;6174432;23;20175;-85
2022/04/08 08:25:55;;;;;;;8.65;1.80;;;18.60;53.20;;;;;;6226591;23;20138;-86
2022/04/08 08:28:22;;;;;;;6.38;2.10;;;18.60;53.10;;;;;;6173794;23;20228;-84
2022/04/08 08:30:51;;;;;;;4.50;1.40;;;18.60;52.60;;;;;;6203699;23;20168;-86
2022/04/08 08:33:16;;;;;;;5.40;1.85;;;18.60;52.80;;;;;;6152338;23;20228;-87
2022/04/08 08:35:47;;;;;;;6.55;1.60;;;18.70;53.20;;;;;;6206409;23;20544;-84
2022/04/08 08:38:18;;;;;;;4.53;1.52;;;18.60;53.70;;;;;;6135251;23;20213;-83
2022/04/08 08:40:44;;;;;;;5.18;1.70;;;18.60;53.00;;;;;;6158573;23;20149;-84
2022/04/08 08:43:17;;;;;;;3.78;1.50;;;18.60;53.10;;;;;;6208845;23;20133;-83
2022/04/08 08:45:45;;;;;;;4.18;1.35;;;18.60;53.30;;;;;;6180565;23;20215;-85
2022/04/08 08:48:16;;;;;;;4.63;1.75;;;18.60;52.80;;;;;;6174493;23;20142;-85
2022/04/08 08:50:54;;;;;;;4.05;1.60;;;18.70;53.70;;;;;;6146395;23;20146;-85
2022/04/08 08:53:20;;;;;;;4.97;1.75;;;18.60;53.70;;;;;;6227077;23;20157;-84
2022/04/08 08:55:48;;;;;;;3.42;1.30;;;18.70;53.60;;;;;;6222707;23;20130;-84
2022/04/08 08:58:15;;;;;;;4.82;1.45;;;18.70;53.30;;;;;;6198234;23;20138;-86
2022/04/08 09:00:45;;;;;;;2.20;1.20;;;18.70;53.70;;;;;;6221094;23;20636;-87
2022/04/08 09:03:11;;;;;;;6.78;1.52;;;18.60;53.10;;;;;;6126627;23;20176;-87
2022/04/08 09:05:42;;;;;;;3.90;1.40;;;18.70;53.30;;;;;;6223496;23;20577;-86
2022/04/08 09:08:13;;;;;;;2.63;1.25;;;18.60;53.30;;;;;;6221990;23;20150;-85
2022/04/08 09:10:48;;;;;;;3.63;1.50;;;18.70;53.00;;;;;;6146836;23;20153;-87
2022/04/08 09:13:23;;;;;;;5.25;1.40;;;18.70;53.30;;;;;;6149196;23;20246;-85
2022/04/08 09:15:59;;;;;;;2.85;1.30;;;18.70;53.40;;;;;;6147052;23;20156;-87
2022/04/08 09:18:31;;;;;;;4.25;1.33;;;18.70;52.60;;;;;;6150511;23;20153;-85
2022/04/08 09:20:58;;;;;;;4.40;1.50;;;18.70;53.10;;;;;;6174127;23;20153;-85
2022/04/08 09:23:24;;;;;;;2.17;1.05;;;18.70;53.60;;;;;;6221124;23;20156;-86
2022/04/08 09:25:59;;;;;;;2.10;1.27;;;18.70;52.50;;;;;;6222324;23;20150;-86
2022/04/08 09:28:25;;;;;;;2.33;1.25;;;18.70;53.20;;;;;;6222370;23;20220;-84
2022/04/08 09:30:55;;;;;;;3.58;1.38;;;18.70;52.70;;;;;;6222464;23;20149;-85
2022/04/08 09:33:21;;;;;;;3.85;1.40;;;18.70;52.70;;;;;;6247974;23;20576;-84
2022/04/08 09:35:53;;;;;;;3.63;1.20;;;18.70;53.10;;;;;;6177123;23;20152;-86
2022/04/08 09:38:20;;;;;;;2.53;1.45;;;18.70;52.70;;;;;;6176261;23;20472;-84
2022/04/08 09:40:47;;;;;;;4.57;1.60;;;18.70;52.80;;;;;;6222447;23;20126;-85
2022/04/08 09:43:13;;;;;;;2.92;1.48;;;18.70;52.80;;;;;;6221807;23;20158;-86
2022/04/08 09:45:39;;;;;;;3.65;1.50;;;18.70;52.40;;;;;;6222438;23;20161;-84
2022/04/08 09:48:06;;;;;;;3.67;1.30;;;18.60;52.20;;;;;;6225575;23;20465;-85
2022/04/08 09:50:40;;;;;;;3.22;1.30;;;18.70;52.40;;;;;;6200365;23;20153;-85
2022/04/08 09:53:06;;;;;;;3.75;1.60;;;18.70;53.00;;;;;;6148735;23;20520;-86
2022/04/08 09:55:32;;;;;;;3.17;1.40;;;18.70;53.20;;;;;;6224472;23;20157;-87
2022/04/08 09:58:00;;;;;;;2.97;1.30;;;18.70;52.50;;;;;;6224028;23;20180;-86
2022/04/08 10:00:31;;;;;;;3.78;1.50;;;18.70;52.30;;;;;;6224009;23;20561;-85
2022/04/08 10:03:01;;;;;;;3.03;1.20;;;18.70;52.40;;;;;;6171492;23;20154;-87
2022/04/08 10:05:31;;;;;;;3.88;1.80;;;18.70;52.90;;;;;;6171649;23;20156;-85
2022/04/08 10:07:57;;;;;;;5.30;1.27;;;18.70;52.40;;;;;;6146976;23;20149;-85
2022/04/08 10:10:40;;;;;;;2.85;1.20;;;18.70;52.90;;;;;;6222533;23;20133;-87
2022/04/08 10:13:39;;;;;;;3.85;1.35;;;18.70;52.50;;;;;;6200314;23;20512;-85
2022/04/08 10:16:13;;;;;;;2.45;1.20;;;18.70;52.60;;;;;;6199964;23;20481;-85
2022/04/08 10:18:40;;;;;;;4.53;1.13;;;18.80;52.60;;;;;;6196097;23;20157;-85
2022/04/08 10:21:06;;;;;;;2.75;1.08;;;18.70;52.30;;;;;;6197538;23;20134;-86
2022/04/08 10:23:39;;;;;;;4.13;1.38;;;18.70;52.60;;;;;;6222148;23;20217;-87
2022/04/08 10:26:05;;;;;;;3.22;1.40;;;18.80;52.50;;;;;;6173142;23;20206;-87
2022/04/08 10:28:35;;;;;;;4.38;1.20;;;18.80;52.80;;;;;;6195800;23;20149;-86
2022/04/08 10:31:00;;;;;;;3.13;1.10;;;18.80;52.50;;;;;;6174746;23;20525;-86
2022/04/08 10:33:27;;;;;;;2.90;1.02;;;18.80;52.60;;;;;;6199927;23;20244;-85
2022/04/08 10:35:54;;;;;;;2.65;1.10;;;18.80;52.80;;;;;;6174630;23;20188;-86
2022/04/08 10:38:20;;;;;;;4.10;1.30;;;18.80;52.30;;;;;;6201698;23;20153;-86
2022/04/08 10:40:54;;;;;;;3.10;1.10;;;18.80;52.50;;;;;;6227602;23;20130;-86
2022/04/08 10:43:20;;;;;;;4.93;1.58;;;18.80;52.50;;;;;;6177344;23;20154;-86
2022/04/08 10:45:56;;;;;;;3.55;1.25;;;18.70;52.30;;;;;;6245591;23;20159;-88
2022/04/08 10:48:31;;;;;;;3.13;1.00;;;18.80;52.00;;;;;;6171113;23;20222;-86
2022/04/08 10:51:14;;;;;;;4.43;1.30;;;18.80;52.00;;;;;;6174797;23;20152;-87
2022/04/08 10:53:42;;;;;;;2.70;1.38;;;18.80;52.10;;;;;;6150177;23;20157;-87
2022/04/08 10:56:13;;;;;;;2.88;1.08;;;18.80;52.30;;;;;;6170191;23;20232;-87
2022/04/08 10:58:46;;;;;;;4.07;1.20;;;18.80;52.30;;;;;;6170299;23;20157;-87
2022/04/08 11:01:20;;;;;;;3.22;1.27;;;18.80;52.20;;;;;;6146868;23;20156;-87
2022/04/08 11:04:01;;;;;;;2.78;1.20;;;18.70;51.90;;;;;;6171588;23;20172;-88
2022/04/08 11:06:33;;;;;;;3.05;1.38;;;18.80;52.00;;;;;;6196480;23;20149;-86
2022/04/08 11:09:06;;;;;;;2.13;1.10;;;18.80;52.10;;;;;;6120869;23;20157;-88
2022/04/08 11:11:35;;;;;;;3.13;1.67;;;18.80;52.00;;;;;;6195288;23;20199;-87
2022/04/08 11:14:02;;;;;;;2.72;1.20;;;18.80;51.90;;;;;;6144677;23;20150;-88
2022/04/08 11:16:30;;;;;;;3.13;1.20;;;18.80;52.40;;;;;;6169985;23;20148;-87
2022/04/08 11:18:55;;;;;;;2.25;1.23;;;18.80;52.10;;;;;;6195358;23;20208;-86
2022/04/08 11:21:21;;;;;;;2.20;1.20;;;18.80;52.00;;;;;;6194581;23;20169;-87
2022/04/08 11:24:00;;;;;;;5.40;1.38;;;18.80;51.90;;;;;;6218861;23;20659;-88
2022/04/08 11:26:28;;;;;;;1.92;1.20;;;18.80;52.30;;;;;;6218256;23;20660;-87
2022/04/08 11:28:54;;;;;;;2.55;1.48;;;18.80;52.10;;;;;;6218586;23;20129;-86
2022/04/08 11:31:20;;;;;;;2.05;1.00;;;18.80;52.10;;;;;;6193477;23;20145;-88
2022/04/08 11:33:46;;;;;;;2.58;1.10;;;18.80;51.90;;;;;;6193571;23;20280;-86
2022/04/08 11:36:14;;;;;;;3.47;1.50;;;18.80;51.90;;;;;;6195027;23;20153;-87
2022/04/08 11:38:41;;;;;;;2.95;1.40;;;18.80;52.00;;;;;;6220041;23;20208;-87
2022/04/08 11:41:16;;;;;;;2.35;1.30;;;18.80;52.30;;;;;;6219634;23;20149;-87
2022/04/08 11:43:42;;;;;;;3.03;1.20;;;18.80;51.90;;;;;;6219383;23;20573;-86
2022/04/08 11:46:13;;;;;;;2.03;1.30;;;18.80;52.10;;;;;;6219682;23;20151;-85
2022/04/08 11:48:39;;;;;;;3.97;1.33;;;18.80;51.60;;;;;;6219865;23;20142;-85
2022/04/08 11:51:06;;;;;;;2.78;1.20;;;18.90;52.20;;;;;;6220067;23;20148;-86
2022/04/08 11:53:40;;;;;;;4.05;1.40;;;18.80;51.60;;;;;;6222079;23;20259;-86
2022/04/08 11:56:07;;;;;;;3.53;1.20;;;18.80;51.80;;;;;;6249394;23;20133;-86
2022/04/08 11:58:33;;;;;;;2.97;1.10;;;18.80;51.80;;;;;;6221819;23;20130;-87
2022/04/08 12:01:00;;;;;;;2.20;0.93;;;18.80;51.60;;;;;;6220432;23;20156;-87
2022/04/08 12:03:30;;;;;;;4.07;1.42;;;18.80;51.40;;;;;;6144924;23;20195;-86
2022/04/08 12:05:57;;;;;;;4.07;1.30;;;18.90;51.60;;;;;;6145115;23;20593;-88
2022/04/08 12:08:23;;;;;;;3.05;1.45;;;18.80;51.60;;;;;;6120789;23;20589;-87
2022/04/08 12:10:54;;;;;;;2.55;1.00;;;18.80;51.40;;;;;;6219974;23;20153;-85
2022/04/08 12:13:29;;;;;;;2.08;1.15;;;18.90;51.60;;;;;;6121089;23;20616;-86
2022/04/08 12:15:59;;;;;;;2.55;0.88;;;18.80;51.70;;;;;;6171322;23;20159;-87
2022/04/08 12:18:32;;;;;;;1.98;1.13;;;18.90;51.60;;;;;;6145912;23;20198;-87
2022/04/08 12:21:04;;;;;;;2.28;1.40;;;18.80;51.50;;;;;;6122891;23;20149;-87
2022/04/08 12:23:32;;;;;;;3.00;1.10;;;18.80;51.40;;;;;;6148917;23;20149;-86
2022/04/08 12:26:05;;;;;;;1.65;1.20;;;18.80;51.60;;;;;;6144835;23;20202;-86
2022/04/08 12:28:35;;;;;;;3.25;1.10;;;18.80;51.40;;;;;;6148322;23;20522;-87
2022/04/08 12:31:20;;;;;;;3.72;1.38;;;18.80;51.40;;;;;;6145753;23;20154;-87
2022/04/08 12:33:46;;;;;;;1.73;1.20;;;18.80;51.20;;;;;;6146315;23;20193;-85
2022/04/08 12:36:14;;;;;;;1.67;1.05;;;18.80;51.60;;;;;;6195561;23;20236;-85
2022/04/08 12:38:42;;;;;;;4.78;1.20;;;18.80;51.50;;;;;;6145307;23;20180;-86
2022/04/08 12:41:12;;;;;;;3.88;1.30;;;18.80;51.20;;;;;;6172684;23;20199;-87
2022/04/08 12:43:40;;;;;;;1.88;1.25;;;18.90;51.10;;;;;;6174418;23;20202;-85
2022/04/08 12:46:10;;;;;;;2.85;1.52;;;18.90;51.90;;;;;;6149354;23;20204;-87
2022/04/08 12:48:36;;;;;;;1.83;1.00;;;18.80;51.70;;;;;;6147900;23;20159;-85
2022/04/08 12:51:06;;;;;;;2.67;1.20;;;18.80;51.30;;;;;;6223807;23;20547;-86